International TAF

Brunei, China, Hong Kong, Malaysia, Philippines, Taiwan

The availability of aerodrome forecasts from overseas locations is dependent on the regular international exchange of data. Some locations may at times be absent. If this problem persists, please advise webav@bom.gov.au

 back to top

ZSPD 17/09/2021 UTC

TAF ZSPD 170312Z 1706/1806 34004MPS 6000 BKN015 TX28/1706Z
TN20/1721Z BECMG 1801/1802 06005MPS

WIDD 17/09/2021 UTC

TAF WIDD 161700Z 1618/1718 11005KT 9999 FEW014

WAMM 16/09/2021 UTC

TAF WAMM 161700Z 1618/1724 VRB03KT 9000 SCT020
TEMPO 1618/1622 5000 RA FEW018CB
TEMPO 1623/1701 8000 RA BKN018
BECMG 1602/1603 35008KT

WBSB 16/09/2021 UTC

TAF WBSB 162250Z 1700/1806 20002KT 9999 FEW014 BKN140
BECMG 1703/1705 32009KT FEW015 FEW016CB

WBKK 16/09/2021 UTC

TAF WBKK 162300Z 1700/1800 23005KT 9999 FEW015
BECMG 1710/1712 11005KT

WBGG 16/09/2021 UTC

TAF WBGG 162300Z 1700/1800 VRB03KT 9999 FEW020
TEMPO 1702/1706 03005KT 5000 SHRA FEW015CB SCT020

VHHH 16/09/2021 UTC

TAF VHHH 162300Z 1700/1806 29010KT 8000 FEW020 TX34/1706Z
TX33/1806Z TN28/1722Z TEMPO 1700/1704 VRB05KT TEMPO 1702/1706
4000 SHRA FEW010CB SCT020 BECMG 1710/1712 12010KT TEMPO
1800/1806 27010KT

VMMC 17/09/2021 UTC

TAF AMD VMMC 170403Z 1704/1806 VRB03KT 9999 FEW025
TEMPO 1704/1706 4000 HZ
PROB30 TEMPO 1706/1710 VRB15G25KT 3500 TSRA FEW010CB SCT020

ZGSZ 17/09/2021 UTC

TAF ZGSZ 170307Z 1706/1806 18004MPS 6000 SCT030 TX32/1706Z
TN27/1722Z TEMPO 1706/1712 TSRA SCT010 FEW020CB BKN030 TEMPO
1721/1801
SHRA SCT015 FEW025CB

RCTP 16/09/2021 UTC

TAF RCTP 162300Z 1700/1806 33005KT 9999 FEW015 BKN032
TEMPO 1706/1710 02005KT FEW012 FEW015TCU BKN022 BKN050
BECMG 1710/1712 12005KT
TEMPO 1718/1724 20005KT
BECMG 1801/1803 33005KT

RCKH 16/09/2021 UTC

TAF RCKH 162300Z 1700/1806 28008KT 9999 FEW015 BKN032
TEMPO 1704/1710 24008KT FEW012 FEW015TCU BKN022 BKN050
BECMG 1710/1712 06005KT
TEMPO 1721/1801 5000 SHRA FEW010 FEW015CB BKN020 BKN050
BECMG 1801/1803 28008KT

ZGGG 17/09/2021 UTC

TAF ZGGG 170300Z 1706/1806 12003MPS 8000 SCT040 TX35/1707Z
TN26/1722Z TEMPO 1706/1712 3500 TSRA SCT033CB BKN040

ZBAA 17/09/2021 UTC

TAF ZBAA 170302Z 1706/1806 16004MPS CAVOK TX27/1707Z TN17/1721Z

ZSSS 17/09/2021 UTC

TAF ZSSS 170312Z 1706/1806 34004MPS 6000 BKN016 TX28/1706Z
TN20/1721Z BECMG 1802/1803 06005MPS

ZBTJ 17/09/2021 UTC

TAF ZBTJ 170301Z 1706/1806 23003MPS 5000 HZ NSC TX26/1706Z
TN17/1721Z

ZBYN 17/09/2021 UTC

TAF ZBYN 170301Z 1706/1806 09004MPS 6000 NSC TX24/1707Z TN15/1722Z

ZSHC 17/09/2021 UTC

TAF ZSHC 170333Z 1706/1806 33005MPS 3000 BR NSC TX32/1806Z
TN22/1721Z BECMG 1708/1709 06003MPS

ZSOF 17/09/2021 UTC

TAF ZSOF 170302Z 1706/1806 10003MPS 5000 HZ NSC TX30/1806Z
TN20/1721Z

ZWWW 17/09/2021 UTC

TAF ZWWW 170301Z 1706/1806 36004MPS CAVOK TX30/1709Z TN20/1723Z
BECMG 1713/1714 18004MPS BECMG 1802/1803 36004MPS

ZYTL 17/09/2021 UTC

TAF ZYTL 170302Z 1706/1806 36004MPS 5000 BR SCT033 TX26/1706Z
TN19/1721Z

RPLL 16/09/2021 UTC

TAF RPLL 162300Z 1700/1806 12006KT 9999 FEW023 BKN300 TX31/1706Z
TN25/1722Z TEMPO 1700/1706 VRB03KT FEW023 BKN100 TEMPO 1706/1712
32006KT -SHRA FEW020CB SCT022 OVC090

RPVM 16/09/2021 UTC

TAF RPVM 162300Z 1700/1806 21006KT 9999 FEW020 BKN300 TEMPO 1700/1706
19005KT -SHRA FEW018CB BKN100 TEMPO 1706/1712 22008KT -SHRA FEW018CB
BKN100

RPMZ 16/09/2021 UTC

TAF RPMZ 162300Z 1700/1724 29006KT 9999 FEW017 BKN090 TEMPO 1703/1709
26012KT 6000 TSRA SCT015CB OVC080

Australian International

The availability of aerodrome forecasts from overseas locations is dependent on the regular international exchange of data. Some locations may at times be absent. If this problem persists, please advise webav@bom.gov.au

 back to top

YMML 17/09/2021 UTC

TAF YMML 170205Z 1703/1806
02025G40KT 9999 -SHRA NSC
BECMG 1710/1712 35014KT 9999 -SHRA FEW035 BKN060
FM172000 30012KT 9999 NSW SCT030
BECMG 1723/1801 28016KT 9999 -SHRA SCT040
RMK FM170300 SEV TURB BLW 5000FT TL171300
T 17 19 16 15 Q 1009 1006 1006 1007
TAF3

YSSY 17/09/2021 UTC

TAF YSSY 170208Z 1703/1806
04020KT CAVOK
FM171000 36012KT CAVOK
FM180000 34016G30KT CAVOK
FM180300 29020G30KT CAVOK
RMK
T 20 19 17 16 Q 1019 1017 1017 1018
TAF3

YBBN 17/09/2021 UTC

TAF YBBN 170229Z 1703/1806
05010KT 9999 FEW040
FM171500 21006KT 9999 FEW025
FM180100 02014KT 9999 FEW035
RMK
T 22 20 17 16 Q 1021 1021 1022 1023
TAF3

YSCB 17/09/2021 UTC

TAF YSCB 170254Z 1703/1800
31014KT CAVOK
FM170700 32012KT CAVOK
FM171300 32008KT 9999 -SHRA SCT020
INTER 1714/1723 6000 SHRA BKN020
RMK FM171000 MOD TURB BLW 5000FT
T 17 18 14 11 Q 1018 1017 1017 1018
TAF3

YBCS 17/09/2021 UTC

TAF YBCS 170229Z 1703/1800
12013KT 9999 FEW030
FM170900 17005KT 9999 SCT025
FM172300 12014KT 9999 SCT040
RMK
T 28 26 23 22 Q 1017 1016 1017 1019
TAF3

YBAS 17/09/2021 UTC

TAF AMD YBAS 170232Z 1702/1800
31014KT CAVOK
FM170500 29014KT 9999 -SHRA NSC
FM171500 18008KT 9999 -SHRA FEW010
FM172100 14014KT 9999 -SHRA FEW010 SCT030
PROB30 INTER 1705/1800 VRB30G45KT 6000 TSRA SCT020 SCT110CB
RMK
T 28 28 28 25 Q 1016 1014 1013 1016

YBMA 16/09/2021 UTC

TAF YBMA 162326Z 1700/1712
04011KT CAVOK
FM170900 VRB03KT CAVOK
RMK
T 31 35 36 30 Q 1017 1014 1012 1014

YPAD 17/09/2021 UTC

TAF YPAD 170211Z 1703/1806
23014KT CAVOK
FM170900 25012KT 9999 -SHRA BKN030
RMK
T 19 19 16 13 Q 1008 1009 1011 1014
TAF3

YPDN 17/09/2021 UTC

TAF YPDN 170213Z 1703/1806
01014KT CAVOK
FM171200 VRB04KT 9999 FEW025
FM180000 09008KT CAVOK
FM180300 02014KT CAVOK
RMK
T 32 32 30 27 Q 1013 1010 1010 1013
TAF3

YPTN 16/09/2021 UTC

TAF YPTN 162312Z 1700/1800
09010KT CAVOK
RMK
T 30 35 37 33 Q 1015 1012 1009 1010

YPPH 17/09/2021 UTC

TAF YPPH 170215Z 1703/1806
25008KT 9999 -SHRA SCT040
FM170800 25008KT 9999 NSW SCT040
FM171300 36005KT 9999 SCT035
FM180200 32012KT 9999 BKN035
RMK
T 15 16 16 12 Q 1023 1022 1022 1024
TAF3

YPLM 16/09/2021 UTC

TAF AMD YPLM 162308Z 1623/1800
20014KT CAVOK
FM170000 16018G28KT CAVOK
FM170400 16014KT CAVOK
RMK
T 13 21 25 27 Q 1019 1019 1017 1015

YCAR 17/09/2021 UTC

TAF AMD YCAR 170206Z 1702/1712
16020KT CAVOK
FM170400 18022KT CAVOK
RMK
T 20 21 21 19 Q 1022 1020 1018 1019

YPCC 16/09/2021 UTC

TAF YPCC 162309Z 1700/1800
12020KT 9999 SCT030 BKN050
RMK
T 26 27 28 27 Q 1013 1014 1013 1012

YPPD 16/09/2021 UTC

TAF YPPD 162305Z 1700/1800
16014KT CAVOK
FM170600 30013KT CAVOK
FM171200 22008KT CAVOK
FM172000 12010KT CAVOK
RMK
T 24 32 33 31 Q 1014 1014 1011 1011

YBTL 17/09/2021 UTC

TAF YBTL 170304Z 1704/1800
05014KT 9999 FEW030
FM171000 09010KT 9999 FEW030
FM172300 08014KT 9999 SCT035
RMK
T 26 24 22 22 Q 1018 1018 1019 1020
TAF3 VALID TL 170500

YMHB 17/09/2021 UTC

TAF YMHB 170326Z 1703/1800
01012KT CAVOK
FM170600 34014KT 9999 -SHRA NSC
FM172300 29016KT 9999 -SHRA SCT040
INTER 1714/1718 5000 SHRA SCT030
RMK FM170900 MOD TURB BLW 5000FT TL171200
FM171200 SEV TURB BLW 5000FT TL171600
FM171600 MOD TURB BLW 5000FT
T 14 15 12 11 Q 1013 1009 1007 1006
TAF3

YPXM 16/09/2021 UTC

TAF AMD YPXM 162329Z 1623/1800
13014KT 9999 -SHRA BKN005
FM171200 13014KT 9999 NSW BKN010
TEMPO 1623/1712 2000 SHRA BKN002
RMK
T 24 25 25 25 Q 1013 1014 1013 1012

New Zealand

The availability of aerodrome forecasts from overseas locations is dependent on the regular international exchange of data. Some locations may at times be absent. If this problem persists, please advise webav@bom.gov.au

 back to top

NZAA 16/09/2021 UTC

TAF NZAA 162303Z 1700/1800 19012KT 9999 BKN050
BECMG 1708/1710 VRB02KT
FM180000 22010KT 9999 SCT035

NZWN 16/09/2021 UTC

TAF NZWN 162303Z 1700/1800 16025G35KT 9999 -SHRA SCT025 BKN035
BECMG 1700/1702 16020KT
TEMPO 1700/1714 6000 SHRA
BECMG 1710/1712 16010KT

NZCH 17/09/2021 UTC

TAF AMD NZCH 170406Z 1704/1800 19010KT 9999 BKN050
BECMG 1708/1710 VRB02KT
BECMG 1721/1723 07010KT

YLHI 16/09/2021 UTC

TAF YLHI 162332Z 1700/1800
16008KT 9999 SCT035
BECMG 1710/1711 09005KT 9999 FEW025 SCT040
FM171700 02007KT 9999 SCT035
RMK
T 17 18 17 16 Q 1022 1022 1022 1023

YSNF 17/09/2021 UTC

TAF AMD YSNF 170324Z 1703/1800
17015KT 9999 -SHRA FEW008 BKN012
FM170800 17013KT 9999 -SHRA FEW015 BKN025
BECMG 1716/1718 18013KT 9999 NSW FEW020 SCT030
TEMPO 1703/1710 4000 SHRA SCT006 BKN010
RMK
T 15 15 15 15 Q 1015 1017 1019 1020

Indonesia, Malaysia, Myanmar, Singapore, Thailand, Vietnam

The availability of aerodrome forecasts from overseas locations is dependent on the regular international exchange of data. Some locations may at times be absent. If this problem persists, please advise webav@bom.gov.au

 back to top

WADA

TAF not available.

WAAA 17/09/2021 UTC

TAF WAAA 162300Z 1700/1806 12003KT 9999 FEW019 BECMG 1701/1703 30010KT BECMG 1711/1713
14003KT 8000

WIII 17/09/2021 UTC

TAF WIII 162300Z 1700/1806 05010KT 9000 SCT020
BECMG 1714/1716 VRB03KT 5000 HZ

WIHH 16/09/2021 UTC

TAF WIHH 162300Z 1700/1800 10004KT 4000 HZ FEW020
BECMG 1702/1704 05010KT 6000 SCT018

WIMM 16/09/2021 UTC

TAF COR WIMM 162300Z 1700/1800 14005KT 6000 -RA BKN017
BECMG 1702/1704 05010KT 9999 NSW
BECMG 1712/1714 VRB05KT 4000 HZ FEW016CB SCT017

WIPP 16/09/2021 UTC

TAF WIPP 162300Z 1700/1724 12006KT 9999 SCT010

WIKD

TAF not available.

WARR 17/09/2021 UTC

TAF WARR 161700Z 1618/1718 25005KT 5000 HZ FEW020
BECMG 1700/1702 09012KT 9999 NSW
BECMG 1715/1717 25005KT 6000

WADD 17/09/2021 UTC

TAF WADD 161700Z 1618/1718 12012KT 9999 SCT016
TEMPO 1618/1622 BKN014

WRRA

TAF not available.

WALL 17/09/2021 UTC

TAF WALL 170500Z 1706/1812 21006KT 9999 SCT020 PROB30 TEMPO 1706/1709 FEW017TCU

WSSS 16/09/2021 UTC

TAF WSSS 162300Z 1700/1806 08009KT 9999 FEW015 SCT020

WSAP 16/09/2021 UTC

TAF WSAP 162300Z 1700/1806 08009KT 9999 FEW015 SCT020

WMKK 16/09/2021 UTC

TAF WMKK 162300Z 1700/1806 VRB03KT 9999 FEW018
PROB30 TEMPO 1708/1710 4000 TSRA FEW017CB SCT020

WMSA 16/09/2021 UTC

TAF WMSA 162300Z 1700/1800 VRB03KT 9999 FEW018 SCT020
TEMPO 1707/1710 4000 TSRA FEW017CB

WMKP 17/09/2021 UTC

TAF AMD WMKP 170128Z 1701/1800 VRB03KT 8000 FEW020
TEMPO 1701/1705 4000 TSRA FEW010 FEW017CB
BECMG 1703/1705 23008KT 9999
BECMG 1710/1712 VRB03KT 8000 FEW025
TEMPO 1717/1721 5000 TSRA FEW010 FEW017CB

WMKJ 16/09/2021 UTC

TAF WMKJ 162300Z 1700/1800 08005KT 9999 FEW018
TEMPO 1706/1709 4000 TSRA FEW017CB SCT018

WMKD 16/09/2021 UTC

TAF WMKD 162300Z 1700/1800 VRB03KT 9999 FEW020
PROB30 TEMPO 1706/1710 8000 -SHRA FEW017CB SCT023

WMKB 16/09/2021 UTC

TAF WMKB 162300Z 1700/1800 VRB03KT 8000 SCT024
TEMPO 1700/1703 6000 -TSRA FEW017CB
BECMG 1703/1705 29010KT 9000 FEW020
TEMPO 1706/1710 5000 TSRA FEW010 FEW017CB
BECMG 1710/1712 VRB03KT 8000 FEW024

VTBD 16/09/2021 UTC

TAF VTBD 162300Z 1700/1806 17005KT 9999 FEW020 SCT040 BECMG 1718/1720
11005KT

VTBS 16/09/2021 UTC

TAF VTBS 162300Z 1700/1806 18005KT 9999 FEW020 BECMG 1718/1720
12005KT

VTBU 16/09/2021 UTC

TAF VTBU 162300Z 1700/1724 36004KT 9999 FEW020 BECMG 1701/1703
22008KT BECMG 1718/1720 35004KT

VTCC 16/09/2021 UTC

TAF VTCC 162300Z 1700/1806 23005KT 9999 BKN035 TEMPO 1706/1710
17015G30KT 4000 TSRA FEW025CB BKN030 TEMPO 1717/1721 33015G30KT
4000 TSRA FEW025CB BKN030 BECMG 1720/1722 16005KT BECMG 1800/1802
22005KT

VTSP 16/09/2021 UTC

TAF VTSP 162300Z 1700/1806 00000KT 9999 FEW020 BECMG 1702/1704
28008KT BECMG 1712/1714 00000KT

VTSS 16/09/2021 UTC

TAF VTSS 162300Z 1700/1724 12003KT 9999 FEW020 SCT100 TEMPO 1706/1712
VRB15G25KT 4000 TSRA FEW016CB SCT018 BKN100

VVTS 16/09/2021 UTC

TAF VVTS 162300Z 1700/1806 VRB03KT 9999 SCT015 SCT040 BECMG 1701/1702
20010KT TEMPO 1702/1705 5000 SHRA SCT015 FEW017CB TEMPO 1705/1711
20015G28KT 1500 +TSRA BKN013 SCT015CB

VDPP 16/09/2021 UTC

TAF VDPP 162300Z 1700/1718 14005KT 9999 SCT017 TEMPO 1707/1712 SCT015
FEW017CB SCT040

VVNB 16/09/2021 UTC

TAF VVNB 162300Z 1700/1724 10006KT 9000 SCT025 TEMPO 1700/1704 4000
TSRA SCT012 FEW027CB BKN040 TEMPO 1718/1724 4000 TSRA SCT010
FEW027CB BKN040

VYYY 16/09/2021 UTC

TAF VYYY 162300Z 1700/1724 20006KT 7000 BKN015 FEW020CB BKN100 TEMPO
1700/1706 6000 DZ TENOI 1706/1712 5000 -RA

South America

The availability of aerodrome forecasts from overseas locations is dependent on the regular international exchange of data. Some locations may at times be absent. If this problem persists, please advise webav@bom.gov.au

 back to top

SAEZ 16/09/2021 UTC

TAF SAEZ 162300Z 1700/1724 02005KT CAVOK TX25/1718Z TN09/1710Z
BECMG 1712/1714 36010KT

SAVC 17/09/2021 UTC

TAF SAVC 162300Z 1700/1724 30020G30KT CAVOK TX17/1718Z TN07/1711Z
BECMG 1704/1706 29010KT BECMG 1713/1715 30020KT

SCIE 17/09/2021 UTC

TAF AMD SCIE 170222Z 1702/1724 22005KT 9999 BKN012
TX15/1718Z TN07/1710Z
BECMG 1713/1715 SCT025
BECMG 1714/1716 22015KT
BECMG 1716/1718 CAVOK

SACO 16/09/2021 UTC

TAF SACO 162300Z 1700/1724 02010KT CAVOK TX28/1718Z TN06/1710Z
BECMG 1713/1716 02015KT

SCIP 17/09/2021 UTC

TAF SCIP 162202Z 1700/1724 10012KT 9999 SCT025
TN14/1707Z TX22/1719Z
TEMPO 1702/1712 09004KT 7000 -SHRA SCT014 BKN040

SAZM 16/09/2021 UTC

TAF SAZM 162300Z 1700/1724 36010KT CAVOK TX25/1718Z TN06/1710Z
BECMG 1713/1715 34015G25KT

SAME 17/09/2021 UTC

TAF SAME 162300Z 1700/1724 16005KT CAVOK TX27/1720Z TN08/1711Z
BECMG 1715/1716 04010KT
BECMG 1722/1723 VRB03KT

SUMU 16/09/2021 UTC

TAF SUMU 162330Z 1700/1724 02005KT CAVOK TX23/1718Z TN09/1710Z

SAZN 17/09/2021 UTC

TAF SAZN 162300Z 1700/1724 VRB03KT CAVOK TX22/1719Z TN06/1710Z
BECMG 1701/1704 25015KT
BECMG 1706/1708 25005KT
BECMG 1713/1715 23015G25KT
BECMG 1722/1724 24010KT

SCTE 16/09/2021 UTC

TAF SCTE 162214Z 1700/1724 36005KT 9999 SCT020 BKN030 BKN050
TN08/1711Z TX13/1718Z
TEMPO 1705/1710 7000 -RA BKN010 OVC020
BECMG 1710/1712 35005KT SCT040
BECMG 1714/1716 36010KT 8000 -SHRA SCT040 BKN060
BECMG 1720/1722 9999 NSW SCT050

SCCI 17/09/2021 UTC

TAF AMD SCCI 170142Z 1702/1800 05005KT 9000 BKN006
TN02/1710Z TX06/1718Z
TEMPO 1712/1717 5000 -RA DZ BKN010
PROB30 TEMPO 1712/1714 2000 BR OVC005
BECMG 1718/1720 11005KT BKN015

SAWG 16/09/2021 UTC

TAF SAWG 162300Z 1700/1724 VRB05KT 9999 SCT020 BKN090 TX06/1718Z
TN00/1711Z
BECMG 1702/1704 5000 BR SCT010 PROB40
TEMPO 1707/1712 0500 BCFG
BECMG 1714/1716 09008KT BKN015

SAAR 16/09/2021 UTC

TAF SAAR 162300Z 1700/1724 06010KT CAVOK TX26/1718Z TN06/1710Z
PROB30 1706/1711 05005KT 5000 BR

SAZS 16/09/2021 UTC

TAF SAZS 162300Z 1700/1724 30017KT 9999 BKN040 TX10/1718Z
TN05/1711Z
BECMG 1703/1706 9999 BKN015 BKN030 PROB40
TEMPO 1702/1712 7000 -RA
BECMG 1713/1715 30020KT
BECMG 1722/1724 29010KT

SCEL 17/09/2021 UTC

TAF SCEL 162200Z 1700/1724 18010KT CAVOK TX22/1718Z TN05/1711Z BECMG
1702/1704 17004KT 7000 NSC BECMG 1707/1709 VRB02KT 3000 BR
TEMPO 1709/1712 0800 BCFG SCT005 BECMG 1716/1718 18005KT
7000 NSC

SAWH 16/09/2021 UTC

TAF SAWH 162300Z 1700/1724 VRB05KT 9999 SCT030 OVC060 TX04/1718Z
TNM01/1711Z
BECMG 1703/1705 -SNRA SCT020 BKN030 OVC050
BECMG 1714/1716 14005KT -RA

Guam, Japan, Korea

The availability of aerodrome forecasts from overseas locations is dependent on the regular international exchange of data. Some locations may at times be absent. If this problem persists, please advise webav@bom.gov.au

 back to top

PGUA 16/09/2021 UTC

TAF COR PGUA 161801Z 1618/1724 VRB04KT 9999 FEW015 QNH2980INS
TEMPO 1702/1706 07010KT 4800 -SHRA VCTS BKN015CB BKN020
BKN180
LAST NO AMDS AFT 1622
NEXT 1718 TX30/1701Z TN25/1619Z

PGUM 16/09/2021 UTC

TAF PGUM 162320Z 1700/1806 14004KT P6SM VCSH SCT020 SCT100

PGSN 16/09/2021 UTC

TAF PGSN 162320Z 1700/1724 13007KT P6SM VCSH SCT020 SCT100

PTRO 16/09/2021 UTC

TAF PTRO 162320Z 1700/1724 24007KT P6SM VCSH BKN014 OVC100
TEMPO 1700/1702 2SM SHRA BKN014 OVC100
FM170300 22007KT P6SM VCSH SCT015 BKN100
TEMPO 1703/1707 SHRA BKN015 OVC100

RJOO

16/09/2021 UTC

TAF RJOO 162309Z 1700/1806 07008KT 7000 -SHRA FEW008 SCT015 BKN035
TEMPO 1700/1706 4000 SHRA BR BECMG 1712/1715 21016KT TEMPO
1715/1721 21018G30KT 3000 SHRA BR FEW005 BKN008 BKN015
TEMPO 1721/1800 4000 SHRA BR BECMG 1721/1800 31013KT

RJOB 16/09/2021 UTC

TAF RJOB 162311Z 1700/1806 10014KT 8000 -SHRA FEW003 SCT008 BKN015
TEMPO 1700/1703 4000 -SHRA BR BCFG FEW000 SCT003 BKN005
TEMPO 1703/1712 10018G28KT 3000 SHRA BR BCFG FEW000 SCT001
BKN003 TEMPO 1712/1718 08020G30KT 2000 +SHRA BR BCFG FEW000
SCT001 BKN003 FEW020CB BECMG 1718/1721 34012KT TEMPO
1718/1800 FEW001 SCT005 BKN008

RJGG 17/09/2021 UTC

TAF AMD RJGG 170141Z 1701/1806 12022KT 9000 -SHRA FEW015 BKN030
TEMPO 1708/1718 4000 SHRA BR TEMPO 1718/1803 12034G46KT
3000 SHRA BR BECMG 1803/1806 36015KT

RJCC 16/09/2021 UTC

TAF RJCC 162305Z 1700/1806 16016KT 9999 FEW010 BKN025 BECMG
1712/1715 34005KT TEMPO 1715/1721 3000 -SHRA BR FEW003
BKN006 TEMPO 1721/1806 2000 SHRA BR FEW002 BKN004

RJSS 17/09/2021 UTC

TAF AMD RJSS 170208Z 1702/1806 15005KT 9999 FEW010 BKN030 BECMG
1703/1705 15015KT TEMPO 1715/1721 4000 -RA BR FEW005 BKN008
BKN015 TEMPO 1721/1806 3000 SHRA BR FEW003 BKN005 BKN008

RJFK 17/09/2021 UTC

TAF AMD RJFK 170217Z 1702/1806 21014KT 6000 -SHRA FEW008 SCT010
BKN015 TEMPO 1703/1704 22015G25KT TEMPO 1704/1709
23016G28KT 1500 SHRA BR FEW003 BKN005 BKN010 BECMG
1709/1711 28018KT TEMPO 1709/1712 28018G30KT 4000 SHRA BR
BECMG 1718/1721 34006KT

RJAA 16/09/2021 UTC

TAF RJAA 162305Z 1700/1806 05006KT 9999 FEW020 BKN045 BECMG
1701/1703 14012KT TEMPO 1800/1806 16018G28KT 4000 SHRA BR

RJBB 16/09/2021 UTC

TAF RJBB 162309Z 1700/1806 21006KT 8000 -SHRA FEW008 SCT015 BKN030
BECMG 1700/1702 06008KT BECMG 1712/1715 19026KT TEMPO
1715/1721 19028G40KT 2500 SHRA BR FEW005 BKN008 BKN015
TEMPO 1721/1800 4000 SHRA BR BECMG 1721/1800 29018KT

RJTT 17/09/2021 UTC

TAF AMD RJTT 170136Z 1701/1806 14008KT 9999 FEW015 BKN040 BECMG
1718/1721 16024KT TEMPO 1800/1806 4000 SHRA BR

RJFF 16/09/2021 UTC

TAF RJFF 162315Z 1700/1806 14012KT 8000 -SHRA FEW015 SCT020 BKN030
BECMG 1702/1704 14028KT TEMPO 1702/1709 16035G45KT 3000
SHRA BR BECMG 1708/1710 26026KT TEMPO 1709/1715 26028G38KT
4000 -SHRA BR BECMG 1715/1718 34011KT

RJFT 16/09/2021 UTC

TAF RJFT 162316Z 1700/1806 15004KT 7000 -SHRA FEW005 SCT010 BKN015
BECMG 1701/1703 20015KT TEMPO 1703/1706 20020G30KT 3000
SHRA BR FEW004 BKN008 BKN015 TEMPO 1706/1715 22022G33KT
3000 SHRA BR FEW003 BKN005 BKN010 BECMG 1710/1712 27012KT
TEMPO 1715/1800 3000 -SHRA BR FEW003 BKN005 BKN010

RJFU 16/09/2021 UTC

TAF RJFU 162316Z 1700/1806 15025KT 7000 -SHRA FEW005 SCT010 BKN015
TEMPO 1700/1703 18028G42KT 2000 SHRA BR BECMG 1703/1705
22040G55KT 3000 SHRA BR BECMG 1707/1709 27034G45KT 9999 NSW
TEMPO 1709/1711 4000 -SHRA BR BECMG 1709/1711 32019KT

ROAH 16/09/2021 UTC

TAF ROAH 162308Z 1700/1806 26008KT 9999 FEW015 SCT025 TEMPO
1700/1701 4000 SHRA FEW008 BKN015 FEW020CB BECMG 1701/1703
29006KT BECMG 1803/1806 36010KT

RKSS 16/09/2021 UTC

TAF RKSS 162300Z 1700/1806 02006KT 9999 SCT035 BKN120
TX28/1705Z TN16/1721Z TX28/1805Z
BECMG 1701/1702 08010G22KT
BECMG 1711/1712 01006KT CAVOK
BECMG 1801/1803 07006KT 9999 SCT035 BKN180

RKSI 16/09/2021 UTC

TAF RKSI 162300Z 1700/1806 04010KT 9999 FEW030 BKN120
TX28/1706Z TN18/1720Z TX27/1805Z
BECMG 1703/1704 10008KT
BECMG 1708/1709 04008KT CAVOK
BECMG 1803/1804 15006KT 9999 FEW030 BKN180
BECMG 1805/1806 25006KT

RKSM 16/09/2021 UTC

TAF COR RKSM 162300Z 1700/1806 03006KT 9999 SCT030 BKN100 BECMG
1703/1704 03006G16KT 9999 SCT030 BECMG 1709/1710 03006KT
9999 SCT030 TX27/1706Z TN17/1721Z

RKPK 16/09/2021 UTC

TAF RKPK 162300Z 1700/1806 03020G40KT 3200 RA BR BKN010 OVC020
TX25/1706Z TN23/1721Z
FM170900 03010G20KT 4800 -RA BR BKN015 OVC030
BECMG 1712/1713 03012KT 9999 NSW BKN030
BECMG 1721/1722 36008KT SCT030

RKPC 17/09/2021 UTC

TAF AMD RKPC 170301Z 1703/1806 33015G25KT 9999 BKN030 BKN100
TX24/1705Z TN22/1721Z TX25/1805Z
BECMG 1708/1709 29008KT

Indonesia, Pakistan, Singapore, India, Sri Lanka, United Arab Emirates

The availability of aerodrome forecasts from overseas locations is dependent on the regular international exchange of data. Some locations may at times be absent. If this problem persists, please advise webav@bom.gov.au

 back to top

WIII 17/09/2021 UTC

TAF WIII 162300Z 1700/1806 05010KT 9000 SCT020
BECMG 1714/1716 VRB03KT 5000 HZ

WSSS 16/09/2021 UTC

TAF WSSS 162300Z 1700/1806 08009KT 9999 FEW015 SCT020

VCBI 16/09/2021 UTC

TAF VCBI 162300Z 1700/1806 20008KT 9999 SCT017 TX30/1707Z
TN25/1800Z PROB30
TEMPO 1700/1709 7000 -TSRA/SHRA BKN016 FEW020CB
BECMG 1704/1706 25010KT

VECC 16/09/2021 UTC

TAF VECC 162300Z 1700/1806 14005KT 2800 HZ SCT018 BKN100
BECMG 1703/1705 3500 -RA HZ
TEMPO 1705/1709 1500 TSRA SCT015 FEW025CB OVC090
BECMG 1800/1802 2400 -RA BR
BECMG 1803/1805 3500 -RA HZ

VOMM 16/09/2021 UTC

TAF VOMM 162300Z 1700/1806 27010KT 4000 BR SCT020 SCT100
BECMG 1703/1704 6000
BECMG 1709/1710 14010KT
TEMPO 1709/1715 SCT018 FEW025TCU/CB BKN100
BECMG 1715/1716 20010KT 5000 BR
BECMG 1721/1722 27010KT
BECMG 1803/1804 6000

VOTV 16/09/2021 UTC

TAF VOTV 162300Z 1700/1806 34010KT 2500 RA BR FEW008 SCT012 BKN080
BECMG 1703/1705 30010G20KT 6000 SCT015 FEW025TCU SCT080
BECMG 1712/1713 4000 DZ HZ SCT012 BKN080
TEMPO 1712/1716 2500 +RA DZ FEW008 SCT012 FEW025CB BKN080
BECMG 1718/1719 34010KT 3000 /RA BR SCT012 BKN080
TEMPO 1722/1802 2000 RA BR FEW008 SCT012 BKN080
BECMG 1803/1804 4000 HZ FEW015 SCT080

VABB 16/09/2021 UTC

TAF VABB 162300Z 1700/1806 19008KT 2500 -RA HZ SCT018 SCT025
TEMPO 1700/1706 19008G18KT 1500 SHRA SCT010 FEW030TCU/CB
BKN090
BECMG 1704/1706 23010KT 3000 -RA HZ
BECMG 1707/1709 23008G18KT 4000 -RA HZ
BECMG 1713/1715 19007KT 3000 -RA HZ
BECMG 1721/1723 2500 -RA HZ

VAAH 16/09/2021 UTC

TAF VAAH 162300Z 1700/1806 20003KT 4000 DZ BR FEW012 SCT020 BKN080
BECMG 1701/1703 2000
BECMG 1704/1706 20006KT 4000 BR HZ
BECMG 1707/1709 5000 HZ FEW020 SCT025 FEW030TCU
BECMG 1710/1712 20003KT
TEMPO 1711/1715 09005G15KT 1500 -TSRA -SHRA SCT012 SCT020
FEW030CB BKN080
BECMG 1713/1715 19006KT 4000 SCT020 FEW030TCU
BECMG 1719/1721 BR HZ 23006KT SCT020 SCT080
BECMG 1801/1803 26003KT 2000 DZ BR FEW012 SCT020 BKN080
BECMG 1804/1806 26006KT 4000

VILK 16/09/2021 UTC

TAF VILK 162300Z 1700/1806 09010KT 1500 -RA SCT015 BKN090
TEMPO 1700/1704 09010G20KT 0800 TSRA RA FEW030CB OVC080
BECMG 1704/1706 09008KT 1500 BR -RA SCT015 BKN090
BECMG 1708/1710 09006KT 3000 BR SCT015 BKN090
TEMPO 1724/1804 10010G20KT 1500 -TSRA -RA FEW030CB BKN090
TEMPO 1724/1804 10010G20KT 1500 -TSRA -RA FEW030CB OVC090
BECMG 1804/1806 10006KT 3000 BR SCT020 BKN100

VANP 16/09/2021 UTC

TAF VANP 162300Z 1700/1806 29005KT 2000 -RA/BR SCT012 BKN080
BECMG 1704/1706 23004KT 4000 HZ SCT016 SCT025
TEMPO 1709/1713 32010KT 1500 -TSRA SCT010 FEW030CB BKN080
BECMG 1715/1717 29005KT 3000 -RA/HZ SCT018 FEW030CB OVC080
BECMG 1718/1722 32002KT 2000 -TSRA/BR SCT010 FEW030CB BKN090
BECMG 1800/1802 25004KT 3000 HZ FEW015 SCT090
BECMG 1804/1806 23005KT 4000 HZ SCT018 SCT025

VRMM 16/09/2021 UTC

TAF VRMM 162300Z 1700/1806 30011KT 9999 FEW018TCU BKN110 TEMPO
1700/1706 FEW018CB

VOHS 16/09/2021 UTC

TAF VOHS 162300Z 1700/1806 25007KT 5000 BR SCT015 BKN100 BECMG
1703/1705 27010KT 6000 SCT015 SCT025 TEMPO 1709/1716 FEW030TCU
BKN080 BECMG 1720/1722 25005KT 5000 BR SCT015 SCT100 BECMG
1803/1805 30008KT 6000 SCT015 SCT025

OPKC 17/09/2021 UTC

TAF OPKC 170330Z 1706/1812 24007G17KT 6000 SCT030 BECMG 1718/1720
26010KT 5000 HZ SCT030 TEMPO
1800/1804 27007KT 4000 HZ BKN020 FM180500 24007G17KT 6000 SCT030

OBBI 16/09/2021 UTC

TAF OBBI 162300Z 1700/1806 30010KT 9000 NSC BECMG 1717/1720 25005KT
TEMPO 1718/1806 4500 HZ

OMAA 16/09/2021 UTC

TAF OMAA 162300Z 1700/1806 04006KT 8000 NSC
BECMG 1700/1702 14006KT
PROB30 1701/1704 4000 HZ
BECMG 1707/1709 32015KT
BECMG 1718/1720 04006KT
BECMG 1800/1802 14006KT
PROB30 1801/1804 4000 HZ

OMDB 16/09/2021 UTC

TAF OMDB 162300Z 1700/1806 13005KT 8000 NSC
PROB30 1701/1705 4000 HZ
BECMG 1703/1705 19010KT
BECMG 1707/1709 28012KT
BECMG 1716/1718 14005KT
PROB30 1800/1805 3000 BR BKN008

OOMS 16/09/2021 UTC

TAF OOMS 162300Z 1700/1806 VRB02KT 8000 NSC BECMG 1706/1708 05012KT
BECMG 1716/1718 VRB02KT

OMSJ 16/09/2021 UTC

TAF OMSJ 162300Z 1700/1806 13005KT 8000 NSC
PROB30 1701/1705 4000 HZ
BECMG 1703/1705 19010KT
BECMG 1707/1709 28012KT
BECMG 1716/1718 14005KT
PROB30 1722/1805 1500 BR BKN008

Malawi, Mauritius, South Africa, Zambia, Zimbabwe

The availability of aerodrome forecasts from overseas locations is dependent on the regular international exchange of data. Some locations may at times be absent. If this problem persists, please advise webav@bom.gov.au

 back to top

FIMP 16/09/2021 UTC

TAF FIMP 162305Z 1700/1806 VRB03KT 9999 SCT016 TEMPO 1701/1709 7000
-SHRA FEW010 BKN014 BECMG 1704/1706 06008KT

FMEE 16/09/2021 UTC

TAF FMEE 162300Z 1700/1806 12010KT 9999 FEW026 SCT046 BECMG 1704/1706
06010KT BECMG 1713/1715 11006KT TEMPO 1718/1804 4500 SHRA FEW023TCU
BKN030 BECMG 1805/1806 30010KT

FLKK

TAF not available.

FWKI 16/09/2021 UTC

TAF FWKI 161400Z 1618/1724 10012KT CAVOK

FAOR 17/09/2021 UTC

TAF FAOR 170212Z 1700/1806 11012KT CAVOK
TX22/1713Z TN06/1704Z
PROB30 TEMPO 1702/1706 BKN010
BECMG 1707/1709 04010KT SCT030
BECMG 1709/1711 32009KT
BECMG 1716/1718 09015KT
BECMG 1718/1720 BKN015
PROB30 TEMPO 1800/1806 OVC005

FVHA

TAF not available.

FAWK 17/09/2021 UTC

TAF FAWK 170300Z 1704/1715 NIL

FABL 16/09/2021 UTC

TAF FABL 162200Z 1700/1724 16010KT CAVOK
TX21/1712Z TN00/1704Z

FALE 16/09/2021 UTC

TAF FALE 162200Z 1700/1806 20014KT 9999 BKN010 OVC020
TX19/1712Z TN14/1703Z
TEMPO 1700/1703 3000 RA BKN004 OVC010
TEMPO 1712/1715 21018G28KT
PROB30 TEMPO 1716/1720 4000 RA BKN009
FM180000 25004KT CAVOK

YPCC 16/09/2021 UTC

TAF YPCC 162309Z 1700/1800
12020KT 9999 SCT030 BKN050
RMK
T 26 27 28 27 Q 1013 1014 1013 1012

United States (includes Hawaii) and Mexican emergency/alternates

The availability of aerodrome forecasts from overseas locations is dependent on the regular international exchange of data. Some locations may at times be absent. If this problem persists, please advise webav@bom.gov.au

 back to top

PHNL 17/09/2021 UTC

TAF PHNL 170320Z 1703/1806 05014KT P6SM FEW025 FEW045 BKN200
FM170500 05010KT P6SM FEW025 FEW045 BKN200
FM172000 06016G25KT P6SM FEW025 SCT045
FM180500 05012G18KT P6SM FEW025 FEW045

PHLI 16/09/2021 UTC

TAF PHLI 162329Z 1700/1724 08011KT P6SM VCSH SCT025 SCT200
FM170300 07013KT P6SM VCSH SCT025 BKN045 BKN200
FM172000 06015KT P6SM FEW025 SCT045

PHOG 16/09/2021 UTC

TAF PHOG 162329Z 1700/1724 08019G29KT P6SM FEW030 SCT050 BKN200
FM170600 06010KT P6SM FEW030 SCT050 BKN200
FM172100 08022G30KT P6SM FEW030 SCT050

PHTO 16/09/2021 UTC

TAF PHTO 162329Z 1700/1724 07007KT P6SM VCSH SCT025 BKN060 BKN200
FM170500 VRB05KT P6SM VCSH SCT025 BKN045 BKN200
FM172000 05009KT P6SM VCSH SCT025 BKN050

PKMJ 16/09/2021 UTC

TAF PKMJ 162320Z 1700/1724 15011KT P6SM SCT015 SCT050 BKN100
TEMPO 1700/1704 -SHRA BKN015

KLAX 17/09/2021 UTC

TAF KLAX 170255Z 1703/1806 26010KT P6SM FEW015
FM170400 VRB03KT P6SM OVC015
FM171500 13006KT P6SM OVC022
FM171900 25010KT P6SM SCT025
FM180300 25006KT P6SM BKN015

KONT 17/09/2021 UTC

TAF KONT 162359Z 1700/1806 26011G18KT P6SM SKC
FM170400 26005KT P6SM SKC
FM171000 VRB04KT 3SM BR BKN009
FM171700 VRB04KT 4SM HZ FEW010
FM172100 26011G18KT P6SM SKC
FM180400 VRB05KT P6SM SKC

KPMD 16/09/2021 UTC

TAF KPMD 162330Z 1700/1724 24018G25KT P6SM SKC
FM170200 24012KT P6SM SKC
FM170500 21006KT P6SM SKC
FM171200 VRB03KT P6SM SKC
FM171900 24017G25KT P6SM SKC

KSAN 17/09/2021 UTC

TAF KSAN 170200Z 1702/1806 28010KT P6SM FEW020
FM170300 VRB04KT P6SM BKN020
FM171700 28006KT P6SM SCT025
FM172000 28010KT P6SM FEW025 SCT150
FM180300 VRB04KT P6SM BKN020

KLAS 17/09/2021 UTC

TAF AMD KLAS 170246Z 1703/1806 23012KT P6SM SKC
FM171200 34008KT P6SM FEW120
FM171600 08007KT P6SM FEW120
FM171800 15012G18KT P6SM SCT120
FM180300 19010KT P6SM BKN120

KOAK 16/09/2021 UTC

TAF KOAK 162327Z 1700/1806 30011KT P6SM SKC
FM170400 29008KT P6SM SCT016
FM170700 28007KT P6SM OVC014
FM171830 30006KT P6SM FEW010
FM172100 30012KT P6SM FEW010
FM180300 29010KT P6SM FEW010

KSFO 17/09/2021 UTC

TAF KSFO 170300Z 1703/1806 28010KT P6SM FEW015
FM170800 VRB05KT P6SM BKN012
FM171800 VRB05KT P6SM FEW006 FEW012
FM172100 29014KT P6SM FEW008
FM180400 29012KT P6SM FEW008

KSMF 16/09/2021 UTC

TAF KSMF 162322Z 1700/1724 18010KT P6SM SKC

KSCK 16/09/2021 UTC

TAF KSCK 162322Z 1700/1724 30007KT P6SM SKC

KFAT 16/09/2021 UTC

TAF KFAT 162352Z 1700/1724 VRB05KT P6SM FEW250

KJFK 17/09/2021 UTC

TAF KJFK 170226Z 1702/1806 08009KT 5SM BR VCSH OVC008
FM171600 06010KT P6SM VCSH OVC012
FM171900 07009KT P6SM SCT015 BKN025
FM172300 06007KT P6SM BKN045 BKN130
FM180300 05007KT P6SM BKN025 BKN150

KPHL 17/09/2021 UTC

TAF KPHL 170256Z 1703/1806 08008KT P6SM OVC015
FM170400 07005KT P6SM OVC008
TEMPO 1707/1711 OVC004
FM171500 06007KT P6SM BKN015
FM171900 05006KT P6SM BKN035
FM180200 05004KT 6SM BR SCT040

KPIT 17/09/2021 UTC

TAF KPIT 170303Z 1703/1806 08005KT P6SM SKC
FM170900 00000KT 2SM BR BKN007
FM171300 14003KT P6SM SCT070
FM180500 00000KT 3SM BR SCT250

KDEN 17/09/2021 UTC

TAF AMD KDEN 170303Z 1703/1806 33009KT P6SM FEW090 SCT140
FM170630 36020G35KT P6SM FEW140
FM170800 36013G21KT P6SM FEW025
FM171200 02011KT P6SM BKN020
FM171600 08007KT P6SM SCT030
FM172100 13010G18KT P6SM FEW120
FM180400 18009G17KT P6SM SKC

KMCI 16/09/2021 UTC

TAF KMCI 162320Z 1700/1724 16008KT P6SM SKC
FM171500 22008KT P6SM SKC
FM172000 VRB04KT P6SM VCSH SCT045

KDFW 17/09/2021 UTC

TAF KDFW 170253Z 1703/1806 11007KT P6SM FEW060

KAUS 16/09/2021 UTC

TAF KAUS 162321Z 1700/1806 03010KT P6SM FEW060 FEW250
FM170300 VRB02KT P6SM SCT250
FM171600 19006KT P6SM SCT200

KELP 16/09/2021 UTC

TAF KELP 162321Z 1700/1724 VRB03KT P6SM FEW110 FEW250
FM170600 21007KT P6SM FEW100
FM171800 02006KT P6SM SKC

KIAH 17/09/2021 UTC

TAF KIAH 170303Z 1703/1806 06005KT P6SM FEW015 SCT025 OVC040
FM171100 VRB03KT 6SM BR BKN025
FM171500 01005KT P6SM BKN035
FM171800 VRB05KT P6SM SCT040

KSAT 16/09/2021 UTC

TAF KSAT 162321Z 1700/1806 VRB03KT P6SM FEW250
FM171600 19006KT P6SM SCT200

KTUS 16/09/2021 UTC

TAF KTUS 162339Z 1700/1724 35008KT P6SM SCT110
FM170400 18007KT P6SM SCT110 BKN200
FM170900 15007KT P6SM FEW110 SCT250
FM171900 30008KT P6SM SCT100

MMCU 17/09/2021 UTC

TAF MMCU 170404Z 1706/1806 32005KT P6SM SCT030
FM171800 09010KT P6SM SCT030 SCT100 BKN250
FM180500 09005KT P6SM SCT030

MMHO 16/09/2021 UTC

TAF AMD MMHO 162103Z 1621/1718 28008KT P6SM BKN030
FM170000 24005KT P6SM SKC
FM171700 24010KT P6SM SKC

MMLT 17/09/2021 UTC

TAF MMLT 170252Z 1706/1806 18006KT P6SM SCT040
FM171800 07010KT P6SM SCT040 BKN120
FM180500 18006KT P6SM SCT040

MMSD 17/09/2021 UTC

TAF MMSD 170252Z 1706/1806 12005KT P6SM SCT250
FM171800 15015KT P6SM SCT030 SCT120 BKN250
TEMPO 1722/1802 BKN030CB
FM180500 12005KT P6SM SCT030 SCT250

Papua New Guinea, Southwest Pacific

The availability of aerodrome forecasts from overseas locations is dependent on the regular international exchange of data. Some locations may at times be absent. If this problem persists, please advise webav@bom.gov.au

 back to top

NWWW 16/09/2021 UTC

TAF NWWW 162300Z 1700/1724 22008KT CAVOK

NFFN 16/09/2021 UTC

TAF NFFN 162313Z 1700/1724
32012KT 9999 SCT028 SCT045
PROB30 TEMPO 1702/1706 5000 TSRA FEW018CB
BECMG 1705/1707 06006KT
BECMG 1722/1724 30010KT

NFNA 16/09/2021 UTC

TAF NFNA 162313Z 1700/1724
05009KT 9999 SCT020 BKN045
PROB40 TEMPO 1702/1706 5000 TSRA BKN015 FEW018CB
PROB40 TEMPO 1706/1714 5000 SHRA BKN015

NFTF 16/09/2021 UTC

TAF NFTF 162306Z 1700/1724
06008KT 9999 SCT016

NSTU 16/09/2021 UTC

TAF NSTU 162329Z 1700/1724 11015KT P6SM VCSH SCT020 SCT040 BKN100

NVVV 16/09/2021 UTC

TAF NVVV 162220Z 1700/1724 VRB04KT 9999 SCT020

NCRG 16/09/2021 UTC

TAF NCRG 162305Z 1700/1724
09015KT 9999 BKN020 BKN040
PROB40 TEMPO 1700/1712 09015G25KT

NTAA 16/09/2021 UTC

TAF NTAA 162300Z 1700/1806 VRB05KT 9999 FEW025

NTTG

TAF not available.

NTTO

TAF not available.

NSFA 16/09/2021 UTC

TAF NSFA 162308Z 1700/1724 08010KT 9999 SCT020 BKN045 PROB30
TEMPO 1702/1706 5000 TSRA FEW018CB PROB30 1712/17018 5000
SHRA FEW018CB

ANYN

TAF not available.

AGGH 16/09/2021 UTC

TAF AGGH 1700/1724 09015KT 9999 FEW020 SCT120 PROB40
INTER 1702/1706 5000 SHRA BKN018 T 31 32 29 27 Q 1011 1009
1009 1009

AGGM 16/09/2021 UTC

TAF AGGM 172310Z 1700/1724 09012KT 9999 FEW020 SCT120

PROB40 INTER 1702/1706 5000 TSSH SCT018 FEW018CB

Q 1011 1009 1009 1009

AGGN 16/09/2021 UTC

TAF AGGN 172310Z 1700/1724 14015KT 9999 FEW020 SCT120

PROB40 INTER 1702/1706 5000 TSSH SCT018 FEW018CB

Q 1011 1009 1009 1009

AYPY 16/09/2021 UTC

TAF AYPY 162145Z 1700/1724 12015G26KT 9999 SCT020 SCT140
FM170600 17015G26KT 9999 SCT018 SCT130

AYNZ

TAF not available.

AYMD

TAF not available.

AYMH

TAF not available.

AYTA

TAF not available.

PKMJ 16/09/2021 UTC

TAF PKMJ 162320Z 1700/1724 15011KT P6SM SCT015 SCT050 BKN100
TEMPO 1700/1704 -SHRA BKN015

NGTA 16/09/2021 UTC

TAF NGTA 162308Z 1700/1724
10010KT 9999 SCT020

PTRO 16/09/2021 UTC

TAF PTRO 162320Z 1700/1724 24007KT P6SM VCSH BKN014 OVC100
TEMPO 1700/1702 2SM SHRA BKN014 OVC100
FM170300 22007KT P6SM VCSH SCT015 BKN100
TEMPO 1703/1707 SHRA BKN015 OVC100

YLHI 16/09/2021 UTC

TAF YLHI 162332Z 1700/1800
16008KT 9999 SCT035
BECMG 1710/1711 09005KT 9999 FEW025 SCT040
FM171700 02007KT 9999 SCT035
RMK
T 17 18 17 16 Q 1022 1022 1022 1023

YSNF 17/09/2021 UTC

TAF AMD YSNF 170324Z 1703/1800
17015KT 9999 -SHRA FEW008 BKN012
FM170800 17013KT 9999 -SHRA FEW015 BKN025
BECMG 1716/1718 18013KT 9999 NSW FEW020 SCT030
TEMPO 1703/1710 4000 SHRA SCT006 BKN010
RMK
T 15 15 15 15 Q 1015 1017 1019 1020

Indonesia, Timor Leste, Papua New Guinea

The availability of aerodrome forecasts from overseas locations is dependent on the regular international exchange of data. Some locations may at times be absent. If this problem persists, please advise webav@bom.gov.au

 back to top

WAAA 17/09/2021 UTC

TAF WAAA 162300Z 1700/1806 12003KT 9999 FEW019 BECMG 1701/1703 30010KT BECMG 1711/1713
14003KT 8000

WAMM 16/09/2021 UTC

TAF WAMM 161700Z 1618/1724 VRB03KT 9000 SCT020
TEMPO 1618/1622 5000 RA FEW018CB
TEMPO 1623/1701 8000 RA BKN018
BECMG 1602/1603 35008KT

WAMP

TAF not available.

WAJJ 16/09/2021 UTC

TAF WAJJ 162300Z 1700/1724 13005KT 9999 FEW013
TEMPO 1705/1708 28006KT FEW012CB FEW013
BECMG 1711/1713 00000KT

WAPP 16/09/2021 UTC

TAF WAPP 162300Z 1700/1724 20005KT 9000 BKN016
TEMPO 1700/1703 5000 RA

WABB 16/09/2021 UTC

TAF WABB 162300Z 1700/1806 30003KT 9999 SCT018
BECMG 1705/1707 06004KT

WPDL 16/09/2021 UTC

TAF WPDL 162237Z 1700/1712
04010KT CAVOK
RMK
T 28 30 30 29 Q 1012 1011 1009 1009

WATT 16/09/2021 UTC

TAF WATT 162300Z 1700/1724 12010KT 9999 SCT018
BECMG 1702/1704 13017G28KT

WIII 17/09/2021 UTC

TAF WIII 162300Z 1700/1806 05010KT 9000 SCT020
BECMG 1714/1716 VRB03KT 5000 HZ

WIHH 16/09/2021 UTC

TAF WIHH 162300Z 1700/1800 10004KT 4000 HZ FEW020
BECMG 1702/1704 05010KT 6000 SCT018

WIMM 16/09/2021 UTC

TAF COR WIMM 162300Z 1700/1800 14005KT 6000 -RA BKN017
BECMG 1702/1704 05010KT 9999 NSW
BECMG 1712/1714 VRB05KT 4000 HZ FEW016CB SCT017

WARR 17/09/2021 UTC

TAF WARR 161700Z 1618/1718 25005KT 5000 HZ FEW020
BECMG 1700/1702 09012KT 9999 NSW
BECMG 1715/1717 25005KT 6000

WADD 17/09/2021 UTC

TAF WADD 161700Z 1618/1718 12012KT 9999 SCT016
TEMPO 1618/1622 BKN014

AYPY 16/09/2021 UTC

TAF AYPY 162145Z 1700/1724 12015G26KT 9999 SCT020 SCT140
FM170600 17015G26KT 9999 SCT018 SCT130

AYNZ

TAF not available.

AYMH

TAF not available.

AYMD

TAF not available.

AYHK

TAF not available.

AYTK

TAF not available.

AYVN

TAF not available.

AYWK

TAF not available.

AYGA

TAF not available.

AYDU

TAF not available.

AYMS

TAF not available.

AYRB

TAF not available.

AYTB

TAF not available.

AYKI

TAF not available.

AYKT

TAF not available.

AYBK

TAF not available.

AYKM

TAF not available.

AYKY

TAF not available.

AYMO

TAF not available.

AYKV

TAF not available.

Accessing this Service

By entering this site, you acknowledge that this information is produced solely for use by the aviation industry, and you are aware that any information for the purposes of flight planning should be obtained from Airservices Australia.